Latest Weather Observations for Beaudesert AWS

IDQ60901

Issued at 4:45 pm EST Tuesday 29 July 2014 (issued every 10 minutes, with the page automatically refreshed every 10 minutes)

About weather observations | Map of Brisbane area stations | Latest observations for Brisbane area | Other Formats
Station Details ID: 040983 Name: BEAUDESERT DRUMLEY STREET Lat: -27.97 Lon: 152.99 Height: 47.81 m
Data from the previous 72 hours. | See also: Recent months at Beaudesert AWS
Date/Time
EST
Tmp

°C
App
Tmp
°C
Dew
Point
°C
Rel
Hum
%
Delta-T

°C
Wind Press
QNH
hPa
Press
MSL
hPa
Rain
since
9 am
mm
Dir
 
Spd
km/h
Gust
km/h
Spd
kts
Gust
kts
29/04:30pm 22.5 19.5 0.9 24 9.9 N 6 9 3 5 1018.7 - 0.0
29/04:00pm 23.4 21.2 1.1 23 10.3 N 2 7 1 4 1018.6 1018.6 0.0
29/03:30pm 23.2 20.6 0.9 23 10.3 N 4 7 2 4 1018.8 - 0.0
29/03:00pm 23.2 20.6 0.9 23 10.3 NNW 4 7 2 4 1019.0 1019.0 0.0
29/02:30pm 22.6 19.6 1.0 24 10.0 E 6 11 3 6 1019.0 - 0.0
29/02:00pm 22.8 20.4 2.3 26 9.7 WNW 4 9 2 5 1019.3 1019.3 0.0
29/01:30pm 22.2 19.2 1.8 26 9.5 N 7 11 4 6 1019.5 - 0.0
29/01:00pm 21.4 18.9 1.7 27 9.1 SSE 4 7 2 4 1019.8 1019.8 0.0
29/12:30pm 20.7 18.4 3.0 31 8.3 WNW 4 7 2 4 1020.4 - 0.0
29/12:00pm 19.5 17.6 2.8 33 7.8 WSW 2 6 1 3 1020.9 1020.9 0.0
29/11:30am 18.6 16.8 3.6 37 7.1 SE 2 6 1 3 1021.6 - 0.0
29/11:00am 17.7 16.1 4.6 42 6.2 W 2 4 1 2 1022.1 1022.2 0.0
29/10:30am 15.9 14.6 5.8 51 4.9 SSW 2 6 1 3 1022.4 - 0.0
29/10:00am 13.9 12.8 6.7 62 3.5 WNW 2 6 1 3 1022.7 1022.8 0.0
29/09:30am 11.5 10.9 7.4 76 2.0 CALM 0 4 0 2 1023.2 - 0.0
29/09:00am 8.6 7.6 5.5 81 1.4 CALM 0 0 0 0 1023.4 1023.4 0.0
29/08:30am 6.2 4.5 4.0 86 0.9 SSW 2 4 1 2 1023.4 - 0.0
29/08:00am 4.5 2.2 2.8 89 0.7 S 4 6 2 3 1023.1 1023.1 0.0
29/07:30am 2.8 1.1 1.8 93 0.4 CALM 0 0 0 0 1022.9 - 0.0
29/07:00am 2.2 0.0 1.0 92 0.5 SSW 2 4 1 2 1022.6 1022.7 0.0
29/06:30am 1.7 -0.2 0.4 91 0.5 CALM 0 0 0 0 1022.3 - 0.0
29/06:00am 2.7 0.9 1.2 90 0.6 CALM 0 0 0 0 1021.9 1022.0 0.0
29/05:30am 3.3 1.2 2.0 91 0.5 ESE 2 4 1 2 1021.8 - 0.0
29/05:00am 3.3 1.2 2.0 91 0.5 SE 2 4 1 2 1021.4 1021.4 0.0
29/04:30am 3.2 1.5 1.9 91 0.5 CALM 0 0 0 0 1021.1 - 0.0
29/04:00am 3.5 1.4 1.9 89 0.6 SSE 2 2 1 1 1020.8 1020.8 0.0
29/03:30am 4.0 1.6 2.2 88 0.7 SSE 4 6 2 3 1020.8 - 0.0
29/03:00am 4.8 2.5 3.0 88 0.7 SSE 4 4 2 2 1020.9 1020.9 0.0
29/02:30am 4.8 2.9 2.7 86 0.9 ESE 2 4 1 2 1020.9 - 0.0
29/02:00am 5.3 3.8 3.2 86 0.9 CALM 0 4 0 2 1021.2 1021.2 0.0
29/01:30am 5.1 3.2 3.1 87 0.8 SE 2 4 1 2 1021.1 - 0.0
29/01:00am 5.8 3.9 2.8 81 1.2 ESE 2 4 1 2 1021.4 1021.4 0.0
29/12:30am 7.0 4.9 4.1 82 1.2 ESE 4 6 2 3 1021.7 - 0.0
29/12:00am 7.4 5.8 4.7 83 1.2 SE 2 4 1 2 1021.9 1022.0 0.0
 
Date/Time
EST
Tmp

°C
App
Tmp
°C
Dew
Point
°C
Rel
Hum
%
Delta-T

°C
Wind Press
QNH
hPa
Press
MSL
hPa
Rain
since
9 am
mm
Dir
 
Spd
km/h
Gust
km/h
Spd
kts
Gust
kts
28/11:30pm 7.8 6.0 5.4 85 1.1 SE 4 6 2 3 1022.1 - 0.0
28/11:00pm 6.3 5.0 4.3 87 0.9 CALM 0 0 0 0 1022.3 1022.4 0.0
28/10:30pm 7.7 6.9 6.3 91 0.6 CALM 0 0 0 0 1022.3 - 0.0
28/10:00pm 6.7 5.5 4.7 87 0.9 CALM 0 0 0 0 1022.3 1022.4 0.0
28/09:30pm 6.9 5.3 4.6 85 1.0 S 2 4 1 2 1022.3 - 0.0
28/09:00pm 7.4 6.1 4.2 80 1.4 CALM 0 0 0 0 1022.0 1022.1 0.0
28/08:30pm 9.1 8.2 6.0 81 1.4 CALM 0 0 0 0 1022.0 - 0.0
28/08:00pm 8.8 7.6 4.4 74 1.9 CALM 0 0 0 0 1021.7 1021.8 0.0
28/07:30pm 10.0 8.9 5.2 72 2.2 CALM 0 0 0 0 1021.4 - 0.0
28/07:00pm 13.1 11.5 6.2 63 3.3 NNE 4 9 2 5 1021.0 1021.0 0.0
28/06:30pm 12.7 11.7 5.4 61 3.4 CALM 0 4 0 2 1020.7 - 0.0
28/06:00pm 16.0 13.7 4.7 47 5.3 NE 6 7 3 4 1020.4 1020.4 0.0
28/05:30pm 18.0 16.5 4.9 42 6.3 N 2 4 1 2 1020.2 - 0.0
28/05:00pm 20.8 19.1 4.0 33 8.1 NNW 2 4 1 2 1020.0 1020.0 0.0
28/04:30pm 22.0 20.5 5.0 33 8.4 WNW 2 4 1 2 1019.7 - 0.0
28/04:00pm 21.7 20.4 4.3 32 8.5 CALM 0 4 0 2 1019.6 1019.6 0.0
28/03:30pm 21.9 19.4 4.5 32 8.5 NNW 7 11 4 6 1019.6 - 0.0
28/03:00pm 22.1 19.6 4.7 32 8.6 WNW 7 15 4 8 1019.9 1019.9 0.0
28/02:30pm 21.6 18.8 5.1 34 8.2 W 9 17 5 9 1020.1 - 0.0
28/02:00pm 21.8 20.2 6.5 37 7.8 W 4 9 2 5 1020.6 1020.6 0.0
28/01:30pm 21.1 18.8 7.3 41 7.1 W 9 19 5 10 1020.9 - 0.0
28/01:00pm 20.6 17.6 5.8 38 7.3 WNW 11 17 6 9 1021.3 1021.3 0.0
28/12:30pm 20.8 17.4 6.0 38 7.4 W 13 19 7 10 1021.9 - 0.0
28/12:00pm 19.8 18.1 8.5 48 5.9 WNW 7 13 4 7 1022.5 1022.6 0.0
28/11:30am 20.2 19.2 10.3 53 5.4 NNW 6 15 3 8 1023.2 - 0.0
28/11:00am 18.5 17.7 9.6 56 4.7 WNW 4 7 2 4 1023.6 1023.6 0.0
28/10:30am 17.3 16.7 9.0 58 4.3 NW 2 6 1 3 1024.2 - 0.0
28/10:00am 15.5 15.1 8.3 62 3.6 CALM 0 2 0 1 1024.6 1024.6 0.0
28/09:30am 12.9 12.2 8.4 74 2.2 SW 2 4 1 2 1024.8 - 0.0
28/09:00am 10.5 9.7 6.6 77 1.8 CALM 0 4 0 2 1024.8 1024.8 0.2
28/08:30am 9.1 8.1 5.8 80 1.5 CALM 0 0 0 0 1024.7 - 0.2
28/08:00am 7.0 5.5 5.2 88 0.8 SSE 2 6 1 3 1024.4 1024.4 0.2
28/07:30am 5.6 4.4 4.6 93 0.4 CALM 0 4 0 2 1024.0 - 0.2
28/07:00am 4.2 2.3 2.9 91 0.5 S 2 4 1 2 1023.8 1023.8 0.2
28/06:30am 4.7 3.3 3.4 91 0.5 CALM 0 0 0 0 1023.7 - 0.2
28/06:00am 4.9 3.5 3.6 91 0.5 CALM 0 0 0 0 1023.6 1023.6 0.2
28/05:30am 5.1 3.3 3.6 90 0.6 SE 2 4 1 2 1023.6 - 0.2
28/05:00am 5.3 3.9 3.8 90 0.6 CALM 0 0 0 0 1023.5 1023.5 0.2
28/04:30am 5.7 4.1 4.3 91 0.6 ESE 2 4 1 2 1023.5 - 0.2
28/04:00am 5.3 3.6 3.8 90 0.6 ESE 2 4 1 2 1023.5 1023.5 0.2
28/03:30am 5.7 4.0 3.9 88 0.8 S 2 6 1 3 1023.5 - 0.2
28/03:00am 6.4 4.8 4.6 88 0.8 SSE 2 4 1 2 1023.4 1023.4 0.2
28/02:30am 6.4 4.8 4.6 88 0.8 SE 2 4 1 2 1023.4 - 0.2
28/02:00am 6.7 5.6 4.9 88 0.8 CALM 0 0 0 0 1023.5 1023.5 0.2
28/01:30am 7.0 5.6 5.3 89 0.8 SSE 2 4 1 2 1023.6 - 0.2
28/01:00am 7.5 6.5 5.5 87 0.9 CALM 0 0 0 0 1023.8 1023.8 0.2
28/12:30am 8.0 7.0 5.8 86 1.0 CALM 0 0 0 0 1024.0 - 0.2
28/12:00am 8.3 7.0 5.8 84 1.1 SSE 2 4 1 2 1024.0 1024.0 0.2
 
Date/Time
EST
Tmp

°C
App
Tmp
°C
Dew
Point
°C
Rel
Hum
%
Delta-T

°C
Wind Press
QNH
hPa
Press
MSL
hPa
Rain
since
9 am
mm
Dir
 
Spd
km/h
Gust
km/h
Spd
kts
Gust
kts
27/11:30pm 9.2 8.4 6.6 84 1.2 CALM 0 4 0 2 1024.0 - 0.2
27/11:00pm 8.9 7.6 7.5 91 0.7 SSE 4 6 2 3 1024.1 1024.1 0.2
27/10:30pm 7.9 7.1 6.5 91 0.6 CALM 0 0 0 0 1024.2 - 0.2
27/10:00pm 7.7 6.8 6.0 89 0.8 CALM 0 0 0 0 1024.1 1024.1 0.2
27/09:30pm 8.3 7.5 6.3 87 0.9 CALM 0 0 0 0 1024.0 - 0.2
27/09:00pm 9.0 8.3 6.8 86 1.0 CALM 0 0 0 0 1023.9 1023.9 0.2
27/08:30pm 10.6 10.1 7.8 83 1.4 CALM 0 0 0 0 1023.7 - 0.2
27/08:00pm 11.4 11.0 8.3 81 1.5 CALM 0 4 0 2 1023.4 1023.4 0.2
27/07:30pm 12.1 11.7 8.2 77 1.9 CALM 0 0 0 0 1023.2 - 0.2
27/07:00pm 12.9 12.4 7.8 71 2.5 CALM 0 2 0 1 1022.9 1022.9 0.2
27/06:30pm 15.2 13.7 8.4 64 3.4 WNW 6 7 3 4 1022.5 - 0.2
27/06:00pm 16.7 15.0 8.4 58 4.2 ENE 7 9 4 5 1021.9 1022.0 0.2
27/05:30pm 17.7 15.5 7.7 52 5.1 ENE 9 13 5 7 1021.5 - 0.2
27/05:00pm 20.4 18.6 1.3 28 8.7 CALM 0 0 0 0 1021.2 1021.2 0.2
27/04:30pm 21.8 18.6 -0.2 23 9.8 SSW 6 9 3 5 1020.8 - 0.2
27/04:00pm 22.1 19.4 0.0 23 9.9 S 4 9 2 5 1020.7 1020.7 0.2
27/03:30pm 22.3 18.6 0.2 23 10.0 SSW 9 11 5 6 1020.6 - 0.2
27/03:00pm 22.6 19.4 1.0 24 9.9 WSW 7 13 4 7 1020.6 1020.6 0.2
27/02:30pm 22.3 18.6 2.4 27 9.4 SW 11 19 6 10 1020.6 - 0.2
27/02:00pm 22.3 19.8 3.9 30 8.9 SW 6 13 3 7 1020.8 1020.8 0.2
27/01:30pm 22.4 20.2 5.4 33 8.5 SW 6 11 3 6 1021.1 - 0.2
27/01:00pm 21.9 18.9 4.0 31 8.7 S 9 17 5 9 1021.2 1021.2 0.2
27/12:30pm 21.1 17.4 4.2 33 8.2 SSW 13 26 7 14 1021.6 - 0.2
27/12:00pm 20.7 18.9 8.0 44 6.6 W 7 17 4 9 1022.2 1022.3 0.2
27/11:30am 19.8 17.5 9.1 50 5.6 SSW 11 19 6 10 1023.0 - 0.2
27/11:00am 19.1 16.8 10.6 58 4.6 SW 13 20 7 11 1023.7 1023.7 0.2
27/10:30am 17.4 17.0 13.1 76 2.4 SW 7 13 4 7 1024.1 - 0.2
27/10:00am 14.7 15.9 13.7 94 0.6 CALM 0 0 0 0 1024.3 1024.3 0.0
27/09:30am 12.5 12.3 11.7 95 0.4 SSW 4 6 2 3 1024.6 - 0.0
27/09:00am 12.1 12.5 11.3 95 0.4 CALM 0 2 0 1 1024.2 1024.2 9.0
27/08:30am 10.9 10.6 10.1 95 0.4 S 2 4 1 2 1024.2 - 9.0
27/08:00am 10.6 10.2 9.8 95 0.4 SSW 2 6 1 3 1024.2 1024.2 9.0
27/07:30am 10.2 9.3 9.4 95 0.4 SSW 4 6 2 3 1023.9 - 9.0
27/07:00am 10.1 9.9 9.2 94 0.4 CALM 0 4 0 2 1023.6 1023.6 9.0
27/06:30am 10.3 10.2 9.4 94 0.4 CALM 0 2 0 1 1023.5 - 9.0
27/06:00am 10.6 10.6 9.7 94 0.5 CALM 0 4 0 2 1023.2 1023.2 9.0
27/05:30am 10.9 10.6 10.0 94 0.5 SSW 2 6 1 3 1023.0 - 9.0
27/05:00am 11.3 10.7 10.4 94 0.5 SW 4 7 2 4 1022.7 1022.8 9.0
27/04:30am 11.9 12.2 11.0 94 0.5 CALM 0 0 0 0 1022.5 - 9.0
27/04:00am 12.2 12.6 11.4 95 0.4 CALM 0 0 0 0 1022.4 1022.5 9.0
27/03:30am 12.3 12.8 11.5 95 0.4 CALM 0 4 0 2 1022.5 - 9.0
27/03:00am 12.5 13.0 11.7 95 0.4 CALM 0 0 0 0 1022.9 1022.9 9.0
27/02:30am 12.0 12.4 11.1 94 0.5 CALM 0 0 0 0 1023.3 - 9.0
27/02:00am 12.2 12.6 11.3 94 0.5 CALM 0 0 0 0 1023.2 1023.2 9.0
27/01:30am 12.4 12.5 11.5 94 0.5 S 2 4 1 2 1023.4 - 9.0
27/01:00am 11.7 12.0 10.8 94 0.5 CALM 0 4 0 2 1023.6 1023.6 9.0
27/12:30am 11.8 12.1 10.9 94 0.5 CALM 0 2 0 1 1023.5 - 9.0
27/12:00am 11.4 11.6 10.5 94 0.5 CALM 0 0 0 0 1023.7 1023.7 9.0
 
Date/Time
EST
Tmp

°C
App
Tmp
°C
Dew
Point
°C
Rel
Hum
%
Delta-T

°C
Wind Press
QNH
hPa
Press
MSL
hPa
Rain
since
9 am
mm
Dir
 
Spd
km/h
Gust
km/h
Spd
kts
Gust
kts
26/11:30pm 12.4 12.9 11.5 94 0.5 CALM 0 4 0 2 1024.0 - 9.0
26/11:00pm 12.4 12.4 11.3 93 0.6 W 2 4 1 2 1024.3 1024.3 9.0
26/10:30pm 13.0 13.5 11.7 92 0.7 CALM 0 0 0 0 1024.3 - 9.0
26/10:00pm 13.6 14.4 12.5 93 0.6 CALM 0 0 0 0 1024.5 1024.5 9.0
26/09:30pm 14.2 15.1 12.9 92 0.7 CALM 0 0 0 0 1024.5 - 9.0
26/09:00pm 14.7 15.5 13.6 93 0.6 W 2 7 1 4 1024.5 1024.5 9.0
26/08:30pm 15.0 15.5 13.9 93 0.6 NE 4 7 2 4 1024.3 - 8.8
26/08:00pm 14.6 15.6 13.3 92 0.7 CALM 0 0 0 0 1024.7 1024.7 8.6
26/07:30pm 15.1 15.9 13.8 92 0.7 E 2 4 1 2 1024.3 - 8.6
26/07:00pm 15.0 16.1 13.5 91 0.8 CALM 0 2 0 1 1024.6 1024.6 8.6
26/06:30pm 15.4 16.3 13.9 91 0.8 NW 2 4 1 2 1024.5 - 8.6
26/06:00pm 15.5 16.7 13.9 90 0.9 CALM 0 0 0 0 1024.1 1024.1 8.6
26/05:30pm 15.5 15.0 13.9 90 0.9 SSW 9 15 5 8 1023.5 - 8.6
26/05:00pm 16.0 16.0 14.2 89 1.0 NE 7 9 4 5 1023.0 1023.0 8.6

Latest Capital City Observations: Canberra | Sydney | Melbourne | Brisbane | Adelaide | Perth | Hobart | Darwin

Other Formats:

Comma delimited format used in spreadsheet applications
http://www.bom.gov.au/fwo/IDQ60901/IDQ60901.95575.axf

JavaScript Object Notation format (JSON) in row-major order
http://www.bom.gov.au/fwo/IDQ60901/IDQ60901.95575.json